Weather reports worldwide

Advertisment
Aosta, Italy (16054): temperature & dewpoint: 17.04.2018 01:00:00 - 23.04.2018 01:00:00 (CEST)Aosta, Italy (16054): wind speed: 17.04.2018 01:00:00 - 23.04.2018 01:00:00 (CEST)Aosta, Italy (16054): wind direction: 17.04.2018 01:00:00 - 23.04.2018 01:00:00 (CEST)Aosta, Italy (16054): visibility: 17.04.2018 01:00:00 - 23.04.2018 01:00:00 (CEST)Aosta, Italy (16054): precipitation: 17.04.2018 01:00:00 - 23.04.2018 01:00:00 (CEST)
Date & Time tt [°C] td [°C] ff [km/h] ff [kn] dd vv [km] rr [mm]
23.04.2018 01:00:00 12,5 4,1 0 0 N - -
23.04.2018 00:00:00 13,7 3,4 0 0 N - -
22.04.2018 23:00:00 15,0 4,3 0 0 N - -
22.04.2018 22:00:00 19,1 2,4 9 5 WNW - -
22.04.2018 21:00:00 21,6 3,2 4 2 - 10 -
22.04.2018 20:00:00 24,1 7,2 21 11 ESE 10 0,0
22.04.2018 19:00:00 25,3 1,4 15 8 ESE 10 -
22.04.2018 18:00:00 26,2 -1,6 21 11 WSW 10 -
22.04.2018 17:00:00 27,4 1,0 5 3 SSW 10 -
22.04.2018 16:00:00 27,4 4,4 8 4 S 10 -
22.04.2018 15:00:00 26,4 4,2 9 5 E 10 -
22.04.2018 14:00:00 25,1 4,2 13 7 ESE 10 0,0
22.04.2018 13:00:00 23,1 3,0 2 1 - 10 -
22.04.2018 12:00:00 20,9 5,2 2 1 - 10 -
22.04.2018 11:00:00 18,4 4,5 2 1 - 10 -
22.04.2018 10:00:00 15,9 4,5 2 1 - 10 -
22.04.2018 09:00:00 12,9 6,6 2 1 - 10 -
22.04.2018 08:00:00 7,5 4,9 2 1 - 10 0,0
22.04.2018 07:00:00 6,4 2,2 0 0 N 10 -
22.04.2018 06:00:00 6,9 2,9 0 0 N - -
22.04.2018 05:00:00 7,1 2,5 0 0 N - -
22.04.2018 04:00:00 8,1 3,1 0 0 N - -
22.04.2018 03:00:00 8,6 3,2 0 0 N - -
22.04.2018 02:00:00 10,4 3,6 0 0 N - 0,0
22.04.2018 01:00:00 11,7 3,6 0 0 N - -
22.04.2018 00:00:00 12,6 3,7 0 0 N - -
21.04.2018 23:00:00 13,9 3,8 0 0 N - -
21.04.2018 22:00:00 17,7 4,2 0 0 N - -
21.04.2018 21:00:00 20,8 1,0 5 3 W 10 -
21.04.2018 20:00:00 23,0 1,9 15 8 WSW 10 0,0
21.04.2018 19:00:00 26,1 2,1 16 9 WSW 10 -
21.04.2018 18:00:00 28,6 -1,4 5 3 - 10 -
21.04.2018 17:00:00 28,3 5,8 5 3 SE 10 -
21.04.2018 16:00:00 28,1 2,3 5 3 - 10 -
21.04.2018 15:00:00 27,0 2,8 2 1 - 10 -
21.04.2018 14:00:00 25,6 1,0 2 1 - 10 0,0
21.04.2018 13:00:00 23,6 3,5 4 2 - 10 -
21.04.2018 12:00:00 20,8 2,5 2 1 - 10 -
21.04.2018 11:00:00 18,3 4,0 2 1 - 10 -
21.04.2018 10:00:00 15,6 5,1 2 1 - 10 -
21.04.2018 09:00:00 11,8 5,8 4 2 - 10 -
21.04.2018 08:00:00 7,7 5,1 2 1 - 10 0,0
21.04.2018 07:00:00 6,6 2,2 2 1 - 10 -
21.04.2018 06:00:00 6,8 2,6 0 0 N - -
21.04.2018 05:00:00 6,9 2,7 0 0 N - -
21.04.2018 04:00:00 7,3 3,1 0 0 N - -
21.04.2018 03:00:00 8,6 3,2 0 0 N - -
21.04.2018 02:00:00 10,3 3,9 0 0 N - 0,0
21.04.2018 01:00:00 11,5 4,2 0 0 N - -
21.04.2018 00:00:00 12,4 3,5 0 0 N - -
20.04.2018 23:00:00 14,1 4,6 0 0 N - -
20.04.2018 22:00:00 18,8 4,8 8 4 WSW - -
20.04.2018 21:00:00 21,1 2,8 8 4 S 10 -
20.04.2018 20:00:00 24,2 2,3 16 9 E 10 0,0
20.04.2018 19:00:00 25,9 2,5 13 7 ESE 10 -
20.04.2018 18:00:00 26,3 2,9 15 8 ESE 10 -
20.04.2018 17:00:00 26,4 4,8 15 8 ESE 10 -
20.04.2018 16:00:00 26,5 3,1 15 8 E 10 -
20.04.2018 15:00:00 25,9 5,5 13 7 E 10 -
20.04.2018 14:00:00 24,4 7,1 13 7 E 10 0,0
20.04.2018 13:00:00 22,4 4,8 4 2 - 10 -
20.04.2018 12:00:00 20,2 5,4 4 2 - 10 -
20.04.2018 11:00:00 17,6 4,5 2 1 - 10 -
20.04.2018 10:00:00 14,9 5,6 2 1 - 10 -
20.04.2018 09:00:00 12,5 6,5 0 0 N 10 -
20.04.2018 08:00:00 7,9 5,3 0 0 N 10 0,0
20.04.2018 07:00:00 6,7 3,1 0 0 N 10 -
20.04.2018 06:00:00 6,9 3,5 0 0 N - -
20.04.2018 05:00:00 7,7 3,5 0 0 N - -
20.04.2018 04:00:00 7,8 3,6 0 0 N - -
20.04.2018 03:00:00 8,7 3,9 0 0 N - -
20.04.2018 02:00:00 10,5 4,1 0 0 N - 0,0
20.04.2018 01:00:00 11,5 4,6 0 0 N - -
20.04.2018 00:00:00 12,8 4,4 0 0 N - -
19.04.2018 23:00:00 15,2 4,8 0 0 N - -
19.04.2018 22:00:00 17,0 5,2 0 0 N - -
19.04.2018 21:00:00 20,9 4,0 21 11 SE 10 -
19.04.2018 20:00:00 23,0 4,0 18 10 E 10 0,0
19.04.2018 19:00:00 24,9 3,5 21 11 E 10 -
19.04.2018 18:00:00 25,7 3,0 16 9 E 10 -
19.04.2018 17:00:00 25,8 1,8 13 7 E 10 -
19.04.2018 16:00:00 25,5 2,2 16 9 E 10 -
19.04.2018 15:00:00 24,7 4,4 18 10 E 10 -
19.04.2018 14:00:00 23,5 5,4 8 4 - 10 0,0
19.04.2018 13:00:00 21,7 5,9 2 1 - 10 -
19.04.2018 12:00:00 19,2 4,8 0 0 N 10 -
19.04.2018 11:00:00 17,0 4,6 0 0 N 10 -
19.04.2018 10:00:00 14,8 4,4 2 1 - 10 -
19.04.2018 09:00:00 12,0 6,0 0 0 N 10 -
19.04.2018 08:00:00 6,9 4,7 0 0 N 10 0,0
19.04.2018 07:00:00 5,6 2,7 0 0 N 10 -
19.04.2018 06:00:00 6,1 2,3 0 0 N - -
19.04.2018 05:00:00 7,0 3,7 0 0 N - -
19.04.2018 04:00:00 8,2 3,6 0 0 N - -
19.04.2018 03:00:00 9,8 4,3 0 0 N - -
19.04.2018 02:00:00 10,3 5,6 5 3 SSW - 0,0
19.04.2018 01:00:00 11,5 5,7 0 0 N - -
19.04.2018 00:00:00 12,3 5,6 2 1 W - -
18.04.2018 23:00:00 14,9 5,0 8 4 NW - -
18.04.2018 22:00:00 16,7 6,4 2 1 WNW - -
18.04.2018 21:00:00 20,7 6,2 18 10 E 10 -
18.04.2018 20:00:00 22,5 5,4 24 13 E 10 0,0
18.04.2018 19:00:00 24,2 4,5 18 10 E 10 -
18.04.2018 18:00:00 24,8 3,4 18 10 E 10 -
18.04.2018 17:00:00 25,3 2,0 15 8 E 10 -
18.04.2018 16:00:00 25,2 4,3 18 10 E 10 -
18.04.2018 15:00:00 24,5 5,3 15 8 ESE 10 -
18.04.2018 14:00:00 23,4 3,8 5 3 - 10 0,0
18.04.2018 13:00:00 21,5 5,3 0 0 N 10 -
18.04.2018 12:00:00 18,8 3,7 4 2 - 10 -
18.04.2018 11:00:00 16,6 6,1 4 2 - 10 -
18.04.2018 10:00:00 13,9 4,7 4 2 - 10 -
18.04.2018 09:00:00 11,5 6,6 4 2 - 10 -
18.04.2018 08:00:00 6,8 4,3 0 0 N 10 0,0
18.04.2018 07:00:00 6,3 2,5 0 0 N 10 -
18.04.2018 06:00:00 5,9 2,3 0 0 N - -
18.04.2018 05:00:00 6,2 2,0 0 0 N - -
18.04.2018 04:00:00 7,4 2,4 0 0 N - -
18.04.2018 03:00:00 8,6 3,6 0 0 N - -
18.04.2018 02:00:00 10,6 3,8 0 0 N - 0,0
18.04.2018 01:00:00 10,2 3,4 0 0 N - -
18.04.2018 00:00:00 11,8 4,2 0 0 N - -
17.04.2018 23:00:00 13,0 4,6 0 0 N - -
17.04.2018 22:00:00 14,7 2,8 9 5 WSW - -
17.04.2018 21:00:00 19,5 4,7 4 2 - 10 -
17.04.2018 20:00:00 22,4 6,5 0 0 N 10 -
17.04.2018 19:00:00 24,0 2,2 22 12 W 10 -
17.04.2018 18:00:00 25,1 4,8 11 6 NW 10 -
17.04.2018 17:00:00 25,4 1,5 5 3 - 10 -
17.04.2018 16:00:00 24,8 1,6 8 4 WSW 10 -
17.04.2018 15:00:00 23,6 2,9 4 2 - 10 -
17.04.2018 14:00:00 21,3 3,9 2 1 - 10 -
17.04.2018 13:00:00 19,4 7,4 4 2 - 10 -
17.04.2018 12:00:00 17,6 4,8 4 2 - 10 -
17.04.2018 11:00:00 15,7 4,9 4 2 - 10 -
17.04.2018 10:00:00 12,8 5,6 0 0 N - -
17.04.2018 09:00:00 9,9 5,8 0 0 N 10 -
17.04.2018 08:00:00 5,4 3,2 0 0 N - 0,0
17.04.2018 07:00:00 5,1 1,0 0 0 N - -
17.04.2018 06:00:00 5,8 1,3 2 1 SW - -
17.04.2018 05:00:00 6,8 2,6 2 1 N - -
17.04.2018 04:00:00 6,9 2,9 8 4 SW - -
17.04.2018 03:00:00 7,1 2,5 0 0 N - -
17.04.2018 02:00:00 9,3 3,2 2 1 SE - 0,0
17.04.2018 01:00:00 10,5 3,2 5 3 WSW - -

tt = temperature
td = dewpoint
ff = wind speed
dd = wind direction
vv = visibility
rr = precipitation

Next stations